createdAt,value
2022-08-29T00:00:50.573Z,7.85
2022-08-29T00:03:17.716Z,7.00
2022-08-29T00:05:50.103Z,7.03
2022-08-29T00:08:18.126Z,6.18
2022-08-29T00:10:45.476Z,7.10
2022-08-29T00:13:13.956Z,6.20
2022-08-29T00:15:44.848Z,6.32
2022-08-29T00:18:17.449Z,6.15
2022-08-29T00:20:45.669Z,6.25
2022-08-29T00:23:12.637Z,6.40
2022-08-29T00:25:39.573Z,6.55
2022-08-29T00:28:06.855Z,6.60
2022-08-29T00:30:35.310Z,6.22
2022-08-29T00:33:02.859Z,6.10
2022-08-29T00:35:33.528Z,6.30
2022-08-29T00:38:01.803Z,6.05
2022-08-29T00:40:35.625Z,5.50
2022-08-29T00:43:03.171Z,6.15
2022-08-29T00:45:31.099Z,6.97
2022-08-29T00:48:11.993Z,5.55
2022-08-29T00:50:52.575Z,5.18
2022-08-29T00:53:27.493Z,5.45
2022-08-29T00:55:56.477Z,4.63
2022-08-29T00:58:31.027Z,4.78
2022-08-29T01:00:58.388Z,4.65
2022-08-29T01:03:27.011Z,5.00
2022-08-29T01:05:54.645Z,4.55
2022-08-29T01:08:21.810Z,4.63
2022-08-29T01:11:07.005Z,4.53
2022-08-29T01:13:39.488Z,4.38
2022-08-29T01:16:08.181Z,4.63
2022-08-29T01:18:37.951Z,4.05
2022-08-29T01:21:07.505Z,4.72
2022-08-29T01:23:42.444Z,4.72
2022-08-29T01:26:12.099Z,4.40
2022-08-29T01:28:42.634Z,4.47
2022-08-29T01:31:16.224Z,4.57
2022-08-29T01:34:03.146Z,4.80
2022-08-29T01:36:41.777Z,4.82
2022-08-29T01:39:09.071Z,4.70
2022-08-29T01:41:36.003Z,5.18
2022-08-29T01:44:10.130Z,4.88
2022-08-29T01:46:37.229Z,4.35
2022-08-29T01:49:07.789Z,4.70
2022-08-29T01:51:35.575Z,4.72
2022-08-29T01:54:02.585Z,5.15
2022-08-29T01:56:32.449Z,4.80
2022-08-29T01:59:01.341Z,5.18
2022-08-29T02:01:32.554Z,4.55
2022-08-29T02:03:59.855Z,4.38
2022-08-29T02:06:28.239Z,4.20
2022-08-29T02:08:55.063Z,4.63
2022-08-29T02:11:23.130Z,4.88
2022-08-29T02:13:53.406Z,5.28
2022-08-29T02:16:20.286Z,4.45
2022-08-29T02:18:47.281Z,4.75
2022-08-29T02:21:16.825Z,4.78
2022-08-29T02:23:45.052Z,4.70
2022-08-29T02:26:12.881Z,4.93
2022-08-29T02:28:41.456Z,4.47
2022-08-29T02:31:09.988Z,4.57
2022-08-29T02:33:37.616Z,5.03
2022-08-29T02:36:06.705Z,5.20
2022-08-29T02:38:34.319Z,5.07
2022-08-29T02:41:02.358Z,5.15
2022-08-29T02:43:29.289Z,5.20
2022-08-29T02:45:56.163Z,4.72
2022-08-29T02:48:23.568Z,4.93
2022-08-29T02:50:54.027Z,5.07
2022-08-29T02:53:24.603Z,4.80
2022-08-29T02:55:54.750Z,5.30
2022-08-29T02:58:23.561Z,5.05
2022-08-29T03:00:50.802Z,4.72
2022-08-29T03:03:20.891Z,5.50
2022-08-29T03:05:48.030Z,4.97
2022-08-29T03:08:15.491Z,6.13
2022-08-29T03:10:43.589Z,5.50
2022-08-29T03:13:11.859Z,5.95
2022-08-29T03:15:39.287Z,5.00
2022-08-29T03:18:06.359Z,5.40
2022-08-29T03:20:36.769Z,5.32
2022-08-29T03:23:05.880Z,5.85
2022-08-29T03:25:36.101Z,5.18
2022-08-29T03:28:03.996Z,5.78
2022-08-29T03:30:31.262Z,6.13
2022-08-29T03:32:58.103Z,5.53
2022-08-29T03:35:25.087Z,5.88
2022-08-29T03:37:55.460Z,5.63
2022-08-29T03:40:23.441Z,5.53
2022-08-29T03:42:50.746Z,5.78
2022-08-29T03:45:18.600Z,5.22
2022-08-29T03:47:46.328Z,5.45
2022-08-29T03:50:15.120Z,5.47
2022-08-29T03:52:43.801Z,5.60
2022-08-29T03:55:12.328Z,5.25
2022-08-29T03:57:39.905Z,5.38
2022-08-29T04:00:13.952Z,5.32
2022-08-29T04:02:40.904Z,5.85
2022-08-29T04:05:08.855Z,5.10
2022-08-29T04:07:47.626Z,5.13
2022-08-29T04:10:20.601Z,5.10
2022-08-29T04:12:51.212Z,4.78
2022-08-29T04:15:21.004Z,5.57
2022-08-29T04:17:52.964Z,5.30
2022-08-29T04:20:25.033Z,4.95
2022-08-29T04:22:54.631Z,5.13
2022-08-29T04:25:24.882Z,5.32
2022-08-29T04:27:52.327Z,5.03
2022-08-29T04:30:22.829Z,5.00
2022-08-29T04:32:50.531Z,5.00
2022-08-29T04:35:17.579Z,5.15
2022-08-29T04:37:45.161Z,5.13
2022-08-29T04:40:15.808Z,4.80
2022-08-29T04:42:43.127Z,4.60
2022-08-29T04:45:13.224Z,5.18
2022-08-29T04:47:41.169Z,5.68
2022-08-29T04:50:11.607Z,5.85
2022-08-29T04:52:39.133Z,5.10
2022-08-29T04:55:07.263Z,5.78
2022-08-29T04:57:35.194Z,5.70
2022-08-29T05:00:05.114Z,6.35
2022-08-29T05:02:32.453Z,6.45
2022-08-29T05:04:59.319Z,6.60
2022-08-29T05:07:27.383Z,6.57
2022-08-29T05:10:01.077Z,6.28
2022-08-29T05:12:29.893Z,6.35
2022-08-29T05:14:57.481Z,5.72
2022-08-29T05:17:25.151Z,6.30
2022-08-29T05:19:52.951Z,6.20
2022-08-29T05:22:20.991Z,6.72
2022-08-29T05:24:48.986Z,6.22
2022-08-29T05:27:21.482Z,6.28
2022-08-29T05:29:51.435Z,6.50
2022-08-29T05:32:19.682Z,6.38
2022-08-29T05:34:48.370Z,6.97
2022-08-29T05:37:19.405Z,7.20
2022-08-29T05:39:47.395Z,6.63
2022-08-29T05:42:14.543Z,7.35
2022-08-29T05:44:41.383Z,6.35
2022-08-29T05:47:10.159Z,6.60
2022-08-29T05:49:39.620Z,6.78
2022-08-29T05:52:09.972Z,6.40
2022-08-29T05:54:40.108Z,7.55
2022-08-29T05:57:08.274Z,7.15
2022-08-29T05:59:35.844Z,6.82
2022-08-29T06:02:03.927Z,6.25
2022-08-29T06:04:30.820Z,6.38
2022-08-29T06:06:57.677Z,6.45
2022-08-29T06:09:24.430Z,6.43
2022-08-29T06:11:53.261Z,6.13
2022-08-29T06:14:20.553Z,6.63
2022-08-29T06:16:47.334Z,6.25
2022-08-29T06:19:14.716Z,6.03
2022-08-29T06:21:42.228Z,6.68
2022-08-29T06:24:09.821Z,6.22
2022-08-29T06:26:37.204Z,6.57
2022-08-29T06:29:07.482Z,6.68
2022-08-29T06:31:34.633Z,6.60
2022-08-29T06:34:05.012Z,6.03
2022-08-29T06:36:32.604Z,6.60
2022-08-29T06:39:02.023Z,6.32
2022-08-29T06:41:30.464Z,6.70
2022-08-29T06:44:00.733Z,6.00
2022-08-29T06:46:33.632Z,6.18
2022-08-29T06:49:03.149Z,7.30
2022-08-29T06:51:33.070Z,6.95
2022-08-29T06:54:02.233Z,6.70
2022-08-29T06:56:30.153Z,6.78
2022-08-29T06:58:58.438Z,7.03
2022-08-29T07:01:25.909Z,6.80
2022-08-29T07:03:54.018Z,7.30
2022-08-29T07:06:21.089Z,6.82
2022-08-29T07:08:54.987Z,6.68
2022-08-29T07:11:25.633Z,6.38
2022-08-29T07:13:53.278Z,6.88
2022-08-29T07:16:23.767Z,6.75
2022-08-29T07:18:53.237Z,7.07
2022-08-29T07:21:23.019Z,6.45
2022-08-29T07:23:51.418Z,6.50
2022-08-29T07:26:21.363Z,6.40
2022-08-29T07:28:50.851Z,6.63
2022-08-29T07:31:18.694Z,6.43
2022-08-29T07:33:46.155Z,7.40
2022-08-29T07:36:13.091Z,7.25
2022-08-29T07:38:39.995Z,6.80
2022-08-29T07:41:10.470Z,6.90
2022-08-29T07:43:38.014Z,6.88
2022-08-29T07:46:17.659Z,7.18
2022-08-29T07:48:45.021Z,7.03
2022-08-29T07:51:18.142Z,7.10
2022-08-29T07:53:46.690Z,6.93
2022-08-29T07:56:16.777Z,6.72
2022-08-29T07:58:44.497Z,7.05
2022-08-29T08:01:21.131Z,6.97
2022-08-29T08:03:49.984Z,7.30
2022-08-29T08:06:19.453Z,7.05
2022-08-29T08:08:47.307Z,6.95
2022-08-29T08:11:14.692Z,7.30
2022-08-29T08:13:41.928Z,7.63
2022-08-29T08:16:13.719Z,7.10
2022-08-29T08:18:42.256Z,7.72
2022-08-29T08:21:10.680Z,7.47
2022-08-29T08:23:38.415Z,7.65
2022-08-29T08:26:05.853Z,8.13
2022-08-29T08:28:32.957Z,7.45
2022-08-29T08:31:05.935Z,8.20
2022-08-29T08:33:35.426Z,7.63
2022-08-29T08:36:04.125Z,7.00
2022-08-29T08:38:31.624Z,7.10
2022-08-29T08:41:10.741Z,6.88
2022-08-29T08:43:54.068Z,7.13
2022-08-29T08:46:38.882Z,7.05
2022-08-29T08:49:11.681Z,6.60
2022-08-29T08:51:43.764Z,7.05
2022-08-29T08:54:17.817Z,6.55
2022-08-29T08:56:49.787Z,6.90
2022-08-29T08:59:28.518Z,7.20
2022-08-29T09:02:08.858Z,6.28
2022-08-29T09:04:54.212Z,6.50
2022-08-29T09:08:01.774Z,6.53
2022-08-29T09:10:43.557Z,6.82
2022-08-29T09:13:38.591Z,7.38
2022-08-29T09:16:25.068Z,6.88
2022-08-29T09:18:52.837Z,6.57
2022-08-29T09:21:40.710Z,6.25
2022-08-29T09:24:14.332Z,7.55
2022-08-29T09:26:41.442Z,7.25
2022-08-29T09:29:09.900Z,6.65
2022-08-29T09:31:37.622Z,6.55
2022-08-29T09:34:12.807Z,6.50
2022-08-29T09:36:53.175Z,6.07
2022-08-29T09:39:22.975Z,6.10
2022-08-29T09:41:59.122Z,5.97
2022-08-29T09:44:35.404Z,6.38
2022-08-29T09:47:27.578Z,6.43
2022-08-29T09:50:06.328Z,6.45
2022-08-29T09:52:33.933Z,6.65
2022-08-29T09:55:17.759Z,6.68
2022-08-29T09:57:54.446Z,6.10
2022-08-29T10:00:28.973Z,6.68
2022-08-29T10:03:00.227Z,6.72
2022-08-29T10:05:29.212Z,5.93
2022-08-29T10:07:59.420Z,6.45
2022-08-29T10:10:33.332Z,6.80
2022-08-29T10:13:13.345Z,5.82
2022-08-29T10:16:09.607Z,6.05
2022-08-29T10:18:36.417Z,5.97
2022-08-29T10:21:16.792Z,5.75
2022-08-29T10:24:01.699Z,6.07
2022-08-29T10:26:31.761Z,6.30
2022-08-29T10:29:20.269Z,6.05
2022-08-29T10:32:07.479Z,6.53
2022-08-29T10:34:55.744Z,6.43
2022-08-29T10:37:52.069Z,6.05
2022-08-29T10:40:37.916Z,6.07
2022-08-29T10:43:29.103Z,6.47
2022-08-29T10:46:09.550Z,6.13
2022-08-29T10:48:40.842Z,5.57
2022-08-29T10:51:21.520Z,6.40
2022-08-29T10:53:57.897Z,5.90
2022-08-29T10:56:31.305Z,5.80
2022-08-29T10:59:20.031Z,6.28
2022-08-29T11:01:59.269Z,6.10
2022-08-29T11:04:47.890Z,6.00
2022-08-29T11:07:21.965Z,7.32
2022-08-29T11:09:55.477Z,6.63
2022-08-29T11:12:30.356Z,6.13
2022-08-29T11:15:03.528Z,6.75
2022-08-29T11:17:35.927Z,6.40
2022-08-29T11:20:20.066Z,7.13
2022-08-29T11:22:56.337Z,6.38
2022-08-29T11:25:23.212Z,6.78
2022-08-29T11:27:57.765Z,6.63
2022-08-29T11:30:48.342Z,7.43
2022-08-29T11:33:21.850Z,7.50
2022-08-29T11:36:14.868Z,8.18
2022-08-29T11:38:50.421Z,7.82
2022-08-29T11:41:34.947Z,7.50
2022-08-29T11:44:30.840Z,7.13
2022-08-29T11:46:58.960Z,7.97
2022-08-29T11:49:31.169Z,8.80
2022-08-29T11:52:13.123Z,7.78
2022-08-29T11:54:40.339Z,8.57
2022-08-29T11:57:10.164Z,8.75
2022-08-29T11:59:49.144Z,8.05
2022-08-29T12:02:28.025Z,8.07
2022-08-29T12:04:54.889Z,8.20
2022-08-29T12:07:34.086Z,7.95
2022-08-29T12:10:04.117Z,8.25
2022-08-29T12:12:36.933Z,7.90
2022-08-29T12:15:29.753Z,8.32
2022-08-29T12:18:19.513Z,8.05
2022-08-29T12:20:49.717Z,8.55
2022-08-29T12:23:36.359Z,8.18
2022-08-29T12:26:22.941Z,9.23
2022-08-29T12:28:59.349Z,9.40
2022-08-29T12:32:18.187Z,8.02
2022-08-29T12:34:49.836Z,9.15
2022-08-29T12:37:39.751Z,8.30
2022-08-29T12:40:28.263Z,8.07
2022-08-29T12:43:17.458Z,8.57
2022-08-29T12:45:46.804Z,8.48
2022-08-29T12:48:23.043Z,8.73
2022-08-29T12:50:50.441Z,8.18
2022-08-29T12:53:19.343Z,9.10
2022-08-29T12:55:53.702Z,8.48
2022-08-29T12:58:42.775Z,8.98
2022-08-29T13:01:26.948Z,8.73
2022-08-29T13:04:02.079Z,9.38
2022-08-29T13:06:30.861Z,8.60
2022-08-29T13:08:58.365Z,8.85
2022-08-29T13:11:29.810Z,9.60
2022-08-29T13:14:10.140Z,8.68
2022-08-29T13:16:39.133Z,10.15
2022-08-29T13:19:18.708Z,9.23
2022-08-29T13:21:45.738Z,9.45
2022-08-29T13:24:19.774Z,9.52
2022-08-29T13:27:01.122Z,10.82
2022-08-29T13:32:26.822Z,8.82
2022-08-29T13:35:15.671Z,10.18
2022-08-29T13:37:46.100Z,9.23
2022-08-29T13:41:04.126Z,10.38
2022-08-29T13:43:36.189Z,10.10
2022-08-29T13:46:24.763Z,9.13
2022-08-29T13:48:59.932Z,9.65
2022-08-29T13:51:28.795Z,9.43
2022-08-29T13:53:56.009Z,9.07
2022-08-29T13:56:32.817Z,10.73
2022-08-29T13:59:00.158Z,11.27
2022-08-29T14:01:30.904Z,11.38
2022-08-29T14:04:36.677Z,11.70
2022-08-29T14:07:02.669Z,10.45
2022-08-29T14:09:35.643Z,9.48
2022-08-29T14:12:03.130Z,10.57
2022-08-29T14:14:30.213Z,9.98
2022-08-29T14:16:57.046Z,10.85
2022-08-29T14:19:25.153Z,10.35
2022-08-29T14:21:53.189Z,10.25
2022-08-29T14:24:20.557Z,10.40
2022-08-29T14:26:48.771Z,9.45
2022-08-29T14:29:24.332Z,9.32
2022-08-29T14:31:55.099Z,9.60
2022-08-29T14:34:22.096Z,10.73
2022-08-29T14:36:49.302Z,8.50
2022-08-29T14:39:16.251Z,9.38
2022-08-29T14:41:43.123Z,9.57
2022-08-29T14:44:10.108Z,9.70
2022-08-29T14:46:47.884Z,9.60
2022-08-29T14:49:15.267Z,9.40
2022-08-29T14:51:42.195Z,9.95
2022-08-29T14:54:09.092Z,9.38
2022-08-29T14:56:51.433Z,10.27
2022-08-29T14:59:20.124Z,9.85
2022-08-29T15:01:53.663Z,11.10
2022-08-29T15:04:34.851Z,10.38
2022-08-29T15:07:08.880Z,10.15
2022-08-29T15:09:35.875Z,11.35
2022-08-29T15:12:03.146Z,10.60
2022-08-29T15:14:30.014Z,10.40
2022-08-29T15:16:56.930Z,10.90
2022-08-29T15:22:12.471Z,11.70
2022-08-29T15:24:40.273Z,10.95
2022-08-29T15:27:08.053Z,9.85
2022-08-29T15:29:37.331Z,10.05
2022-08-29T15:32:05.060Z,10.40
2022-08-29T15:34:32.442Z,9.93
2022-08-29T15:37:00.649Z,10.70
2022-08-29T15:39:28.061Z,10.68
2022-08-29T15:41:57.366Z,10.77
2022-08-29T15:44:25.331Z,10.68
2022-08-29T15:46:52.325Z,11.25
2022-08-29T15:49:21.947Z,10.80
2022-08-29T15:51:51.592Z,10.10
2022-08-29T15:54:20.127Z,10.57
2022-08-29T15:56:47.166Z,10.90
2022-08-29T15:59:15.190Z,9.93
2022-08-29T16:01:46.981Z,9.45
2022-08-29T16:04:15.997Z,9.90
2022-08-29T16:06:43.401Z,10.82
2022-08-29T16:09:15.674Z,11.10
2022-08-29T16:11:48.906Z,10.75
2022-08-29T16:17:05.058Z,11.00
2022-08-29T16:19:32.657Z,11.02
2022-08-29T16:22:04.303Z,10.68
2022-08-29T16:24:33.583Z,11.63
2022-08-29T16:27:00.594Z,11.05
2022-08-29T16:29:28.200Z,10.07
2022-08-29T16:31:58.048Z,10.68
2022-08-29T16:34:26.866Z,10.43
2022-08-29T16:36:58.505Z,12.02
2022-08-29T16:39:26.674Z,14.10
2022-08-29T16:41:54.012Z,13.70
2022-08-29T16:44:21.125Z,12.65
2022-08-29T16:46:48.085Z,11.85
2022-08-29T16:49:15.198Z,12.05
2022-08-29T16:51:42.201Z,12.90
2022-08-29T16:54:09.171Z,12.30
2022-08-29T16:56:36.092Z,13.52
2022-08-29T16:59:04.423Z,12.52
2022-08-29T17:01:48.228Z,12.25
2022-08-29T17:04:33.719Z,11.68
2022-08-29T17:07:01.254Z,10.50
2022-08-29T17:09:28.551Z,10.10
2022-08-29T17:11:56.467Z,10.15
2022-08-29T17:14:24.569Z,10.10
2022-08-29T17:16:53.640Z,10.25
2022-08-29T17:19:21.626Z,9.30
2022-08-29T17:21:49.186Z,11.73
2022-08-29T17:24:16.577Z,10.10
2022-08-29T17:26:46.084Z,11.15
2022-08-29T17:29:13.416Z,10.88
2022-08-29T17:31:40.597Z,11.32
2022-08-29T17:34:09.353Z,10.05
2022-08-29T17:36:37.799Z,9.60
2022-08-29T17:39:06.344Z,8.90
2022-08-29T17:41:35.721Z,8.60
2022-08-29T17:44:05.613Z,7.63
2022-08-29T17:46:32.662Z,7.82
2022-08-29T17:49:01.309Z,7.65
2022-08-29T17:51:31.201Z,7.55
2022-08-29T17:53:58.636Z,7.28
2022-08-29T17:56:29.530Z,6.80
2022-08-29T17:58:57.606Z,6.53
2022-08-29T18:01:24.523Z,6.45
2022-08-29T18:03:51.929Z,7.40
2022-08-29T18:06:19.296Z,8.10
2022-08-29T18:08:48.344Z,7.60
2022-08-29T18:11:17.339Z,7.90
2022-08-29T18:13:45.067Z,7.45
2022-08-29T18:16:12.993Z,7.70
2022-08-29T18:18:41.303Z,8.10
2022-08-29T18:21:09.157Z,8.32
2022-08-29T18:23:36.928Z,8.15
2022-08-29T18:26:04.353Z,8.10
2022-08-29T18:28:31.676Z,7.82
2022-08-29T18:30:59.192Z,7.45
2022-08-29T18:33:38.967Z,7.40
2022-08-29T18:36:11.483Z,8.10
2022-08-29T18:38:38.408Z,7.72
2022-08-29T18:41:06.392Z,7.93
2022-08-29T18:43:34.417Z,8.15
2022-08-29T18:46:06.093Z,7.38
2022-08-29T18:48:33.135Z,7.75
2022-08-29T18:51:00.321Z,8.23
2022-08-29T18:53:31.162Z,8.27
2022-08-29T18:56:00.332Z,7.47
2022-08-29T18:58:30.335Z,6.82
2022-08-29T19:00:57.846Z,7.28
2022-08-29T19:03:24.884Z,7.05
2022-08-29T19:05:52.674Z,6.93
2022-08-29T19:08:24.611Z,7.13
2022-08-29T19:10:53.922Z,6.63
2022-08-29T19:13:25.283Z,7.18
2022-08-29T19:16:03.085Z,6.80
2022-08-29T19:18:30.462Z,6.93
2022-08-29T19:21:03.304Z,6.28
2022-08-29T19:23:36.637Z,6.50
2022-08-29T19:26:07.095Z,6.75
2022-08-29T19:28:34.559Z,7.00
2022-08-29T19:31:02.753Z,7.15
2022-08-29T19:33:30.018Z,7.80
2022-08-29T19:35:57.312Z,8.07
2022-08-29T19:38:24.334Z,7.68
2022-08-29T19:40:56.368Z,7.45
2022-08-29T19:43:25.812Z,7.43
2022-08-29T19:45:53.767Z,7.50
2022-08-29T19:48:20.705Z,7.60
2022-08-29T19:50:48.184Z,7.88
2022-08-29T19:53:21.510Z,7.85
2022-08-29T19:55:53.114Z,7.28
2022-08-29T19:58:20.014Z,7.60
2022-08-29T20:00:47.059Z,8.27
2022-08-29T20:03:14.982Z,8.20
2022-08-29T20:05:41.934Z,7.13
2022-08-29T20:08:10.299Z,7.82
2022-08-29T20:10:37.441Z,7.28
2022-08-29T20:13:04.697Z,7.35
2022-08-29T20:15:32.175Z,7.55
2022-08-29T20:18:00.485Z,7.55
2022-08-29T20:20:31.931Z,7.30
2022-08-29T20:22:58.822Z,7.20
2022-08-29T20:25:25.888Z,7.03
2022-08-29T20:27:53.345Z,6.75
2022-08-29T20:30:27.021Z,6.57
2022-08-29T20:32:54.474Z,7.03
2022-08-29T20:35:41.284Z,6.90
2022-08-29T20:38:09.272Z,7.35
2022-08-29T20:40:39.192Z,6.82
2022-08-29T20:43:06.961Z,5.70
2022-08-29T20:45:34.400Z,6.32
2022-08-29T20:48:02.054Z,6.20
2022-08-29T20:53:00.718Z,6.65
2022-08-29T20:55:27.556Z,6.57
2022-08-29T20:57:54.505Z,6.53
2022-08-29T21:00:22.153Z,6.75
2022-08-29T21:03:08.133Z,7.10
2022-08-29T21:05:43.336Z,7.43
2022-08-29T21:08:22.704Z,6.80
2022-08-29T21:10:52.307Z,6.65
2022-08-29T21:13:19.791Z,7.20
2022-08-29T21:15:47.223Z,6.55
2022-08-29T21:18:16.708Z,7.10
2022-08-29T21:20:54.436Z,6.53
2022-08-29T21:23:23.517Z,6.85
2022-08-29T21:25:58.851Z,6.75
2022-08-29T21:28:26.976Z,6.95
2022-08-29T21:30:54.861Z,6.65
2022-08-29T21:33:22.649Z,6.68
2022-08-29T21:35:50.361Z,7.53
2022-08-29T21:38:18.332Z,7.03
2022-08-29T21:40:51.127Z,7.38
2022-08-29T21:43:19.972Z,6.32
2022-08-29T21:45:47.991Z,7.05
2022-08-29T21:48:14.873Z,6.28
2022-08-29T21:50:42.052Z,6.25
2022-08-29T21:53:14.891Z,6.70
2022-08-29T21:55:41.894Z,6.20
2022-08-29T21:58:08.741Z,6.47
2022-08-29T22:00:36.857Z,6.93
2022-08-29T22:03:07.000Z,6.50
2022-08-29T22:05:34.063Z,6.53
2022-08-29T22:08:03.144Z,6.65
2022-08-29T22:10:33.511Z,7.47
2022-08-29T22:13:00.997Z,5.57
2022-08-29T22:15:46.870Z,6.60
2022-08-29T22:18:16.492Z,6.20
2022-08-29T22:20:46.554Z,6.22
2022-08-29T22:23:17.486Z,5.85
2022-08-29T22:25:47.379Z,6.40
2022-08-29T22:28:14.259Z,6.30
2022-08-29T22:30:41.128Z,7.00
2022-08-29T22:33:08.210Z,7.28
2022-08-29T22:35:35.733Z,7.30
2022-08-29T22:38:03.139Z,7.40
2022-08-29T22:40:31.704Z,7.70
2022-08-29T22:42:58.634Z,6.63
2022-08-29T22:45:25.644Z,6.43
2022-08-29T22:47:52.737Z,6.40
2022-08-29T22:50:22.878Z,6.85
2022-08-29T22:52:49.797Z,6.18
2022-08-29T22:57:47.790Z,6.78
2022-08-29T23:00:19.392Z,6.00
2022-08-29T23:02:46.998Z,6.03
2022-08-29T23:05:14.685Z,6.18
2022-08-29T23:07:41.656Z,6.70
2022-08-29T23:10:09.580Z,6.22
2022-08-29T23:12:36.789Z,6.75
2022-08-29T23:15:10.519Z,6.32
2022-08-29T23:17:37.455Z,6.35
2022-08-29T23:20:06.190Z,6.20
2022-08-29T23:22:33.634Z,6.80
2022-08-29T23:25:00.561Z,6.75
2022-08-29T23:27:31.996Z,6.35
2022-08-29T23:30:00.984Z,6.50
2022-08-29T23:32:28.904Z,6.63
2022-08-29T23:34:56.154Z,6.82
2022-08-29T23:37:23.365Z,6.88
2022-08-29T23:39:50.902Z,6.88
2022-08-29T23:42:17.752Z,6.45
2022-08-29T23:44:45.737Z,7.25
2022-08-29T23:47:15.724Z,7.05
2022-08-29T23:49:42.672Z,6.82
2022-08-29T23:52:09.660Z,7.20
2022-08-29T23:54:36.816Z,6.72
2022-08-29T23:57:04.420Z,6.65
2022-08-29T23:59:52.197Z,6.47
